createdAt,value
2017-07-20T00:00:06.894Z,36.6
2017-07-20T00:01:03.448Z,36.6
2017-07-20T00:02:03.353Z,36.6
2017-07-20T00:03:03.391Z,36.6
2017-07-20T00:04:03.609Z,36.6
2017-07-20T00:05:03.664Z,36.6
2017-07-20T00:06:05.627Z,36.6
2017-07-20T00:07:03.708Z,36.6
2017-07-20T00:08:05.523Z,36.6
2017-07-20T00:09:03.654Z,36.6
2017-07-20T00:10:07.240Z,36.6
2017-07-20T00:11:07.275Z,36.6
2017-07-20T00:12:04.020Z,36.6
2017-07-20T00:13:05.751Z,36.6
2017-07-20T00:14:04.049Z,36.6
2017-07-20T00:15:07.250Z,36.6
2017-07-20T00:16:04.174Z,36.6
2017-07-20T00:17:07.368Z,36.7
2017-07-20T00:18:06.533Z,36.7
2017-07-20T00:19:06.341Z,36.7
2017-07-20T00:20:07.563Z,36.6
2017-07-20T00:21:07.626Z,36.6
2017-07-20T00:22:04.362Z,36.6
2017-07-20T00:23:06.653Z,36.6
2017-07-20T00:24:08.067Z,36.6
2017-07-20T00:25:04.651Z,36.6
2017-07-20T00:26:07.980Z,36.6
2017-07-20T00:27:04.707Z,36.6
2017-07-20T00:28:06.735Z,36.6
2017-07-20T00:29:05.299Z,36.6
2017-07-20T00:30:08.381Z,36.6
2017-07-20T00:31:08.395Z,36.6
2017-07-20T00:32:08.503Z,36.6
2017-07-20T00:33:08.302Z,36.6
2017-07-20T00:34:05.045Z,36.6
2017-07-20T00:35:08.880Z,36.6
2017-07-20T00:36:05.327Z,36.7
2017-07-20T00:37:07.076Z,36.7
2017-07-20T00:38:08.715Z,36.6
2017-07-20T00:39:08.620Z,36.7
2017-07-20T00:40:07.260Z,36.6
2017-07-20T00:41:05.646Z,36.6
2017-07-20T00:42:05.660Z,36.6
2017-07-20T00:43:05.491Z,36.7
2017-07-20T00:44:06.302Z,36.6
2017-07-20T00:45:09.733Z,36.6
2017-07-20T00:46:09.211Z,36.6
2017-07-20T00:47:06.040Z,36.6
2017-07-20T00:48:05.971Z,36.6
2017-07-20T00:49:05.843Z,36.6
2017-07-20T00:50:09.394Z,36.6
2017-07-20T00:51:06.048Z,36.6
2017-07-20T00:52:05.872Z,36.7
2017-07-20T00:53:08.084Z,36.6
2017-07-20T00:54:09.291Z,36.6
2017-07-20T00:55:09.578Z,36.6
2017-07-20T00:56:09.609Z,36.6
2017-07-20T00:57:08.187Z,36.6
2017-07-20T00:58:09.650Z,36.6
2017-07-20T00:59:06.646Z,36.6
2017-07-20T01:00:06.264Z,36.6
2017-07-20T01:01:06.556Z,36.6
2017-07-20T01:02:08.517Z,36.6
2017-07-20T01:03:09.949Z,36.6
2017-07-20T01:04:06.658Z,36.6
2017-07-20T01:05:06.943Z,36.6
2017-07-20T01:06:06.760Z,36.6
2017-07-20T01:07:06.602Z,36.6
2017-07-20T01:08:06.837Z,36.6
2017-07-20T01:09:09.945Z,36.6
2017-07-20T01:10:06.777Z,36.6
2017-07-20T01:11:10.601Z,36.6
2017-07-20T01:12:08.664Z,36.6
2017-07-20T01:13:07.025Z,36.6
2017-07-20T01:14:07.121Z,36.6
2017-07-20T01:15:07.052Z,36.6
2017-07-20T01:16:07.323Z,36.6
2017-07-20T01:17:11.106Z,36.6
2017-07-20T01:18:07.450Z,36.6
2017-07-20T01:19:07.475Z,36.6
2017-07-20T01:20:07.514Z,36.6
2017-07-20T01:21:10.646Z,36.6
2017-07-20T01:22:09.292Z,36.6
2017-07-20T01:23:11.056Z,36.6
2017-07-20T01:24:09.586Z,36.6
2017-07-20T01:25:07.625Z,36.6
2017-07-20T01:26:10.976Z,36.6
2017-07-20T01:27:11.197Z,36.6
2017-07-20T01:28:08.080Z,36.6
2017-07-20T01:29:11.960Z,36.6
2017-07-20T01:30:08.382Z,36.6
2017-07-20T01:31:08.436Z,36.6
2017-07-20T01:32:12.563Z,36.6
2017-07-20T01:33:08.454Z,36.6
2017-07-20T01:34:11.603Z,36.6
2017-07-20T01:35:11.932Z,36.6
2017-07-20T01:36:10.256Z,36.6
2017-07-20T01:37:09.723Z,36.6
2017-07-20T01:38:11.720Z,36.6
2017-07-20T01:39:12.154Z,36.6
2017-07-20T01:40:10.620Z,36.6
2017-07-20T01:41:13.082Z,36.6
2017-07-20T01:42:08.664Z,36.6
2017-07-20T01:43:08.953Z,36.7
2017-07-20T01:44:08.737Z,36.6
2017-07-20T01:45:08.571Z,36.6
2017-07-20T01:46:12.257Z,36.6
2017-07-20T01:47:10.873Z,36.6
2017-07-20T01:48:10.765Z,36.6
2017-07-20T01:49:08.927Z,36.6
2017-07-20T01:50:09.106Z,36.6
2017-07-20T01:51:10.988Z,36.6
2017-07-20T01:52:11.194Z,36.6
2017-07-20T01:53:09.523Z,36.6
2017-07-20T01:54:11.001Z,36.6
2017-07-20T01:55:10.123Z,36.6
2017-07-20T01:56:11.451Z,36.6
2017-07-20T01:57:09.289Z,36.6
2017-07-20T01:58:09.206Z,36.7
2017-07-20T01:59:09.731Z,36.7
2017-07-20T02:00:09.657Z,36.7
2017-07-20T02:01:09.491Z,36.7
2017-07-20T02:02:09.382Z,36.6
2017-07-20T02:03:13.052Z,36.6
2017-07-20T02:04:09.606Z,36.7
2017-07-20T02:05:09.715Z,36.7
2017-07-20T02:06:11.637Z,36.7
2017-07-20T02:07:09.538Z,36.6
2017-07-20T02:08:09.605Z,36.7
2017-07-20T02:09:09.727Z,36.6
2017-07-20T02:10:13.112Z,36.6
2017-07-20T02:11:10.048Z,36.6
2017-07-20T02:12:13.686Z,36.6
2017-07-20T02:13:10.082Z,36.6
2017-07-20T02:14:12.379Z,36.6
2017-07-20T02:15:12.350Z,36.6
2017-07-20T02:16:10.099Z,36.6
2017-07-20T02:17:11.411Z,36.6
2017-07-20T02:18:10.454Z,36.6
2017-07-20T02:19:13.595Z,36.6
2017-07-20T02:20:13.686Z,36.6
2017-07-20T02:21:11.184Z,36.6
2017-07-20T02:22:10.491Z,36.6
2017-07-20T02:23:13.931Z,36.6
2017-07-20T02:24:10.781Z,36.6
2017-07-20T02:25:13.932Z,36.6
2017-07-20T02:26:10.670Z,36.6
2017-07-20T02:27:12.563Z,36.7
2017-07-20T02:28:14.230Z,36.6
2017-07-20T02:29:11.934Z,36.7
2017-07-20T02:30:14.463Z,36.7
2017-07-20T02:31:14.351Z,36.6
2017-07-20T02:32:10.987Z,36.7
2017-07-20T02:33:13.058Z,36.7
2017-07-20T02:34:14.313Z,36.7
2017-07-20T02:35:14.874Z,36.7
2017-07-20T02:36:14.006Z,36.7
2017-07-20T02:37:11.391Z,36.7
2017-07-20T02:38:11.327Z,36.7
2017-07-20T02:39:11.320Z,36.7
2017-07-20T02:40:15.274Z,36.7
2017-07-20T02:41:13.611Z,36.7
2017-07-20T02:42:11.735Z,36.7
2017-07-20T02:43:11.740Z,36.7
2017-07-20T02:44:15.215Z,36.7
2017-07-20T02:45:11.655Z,36.7
2017-07-20T02:46:12.225Z,36.7
2017-07-20T02:47:12.159Z,36.7
2017-07-20T02:48:12.129Z,36.7
2017-07-20T02:49:11.975Z,36.7
2017-07-20T02:50:13.894Z,36.7
2017-07-20T02:51:15.424Z,36.7
2017-07-20T02:52:12.137Z,36.7
2017-07-20T02:53:12.337Z,36.7
2017-07-20T02:54:14.513Z,36.7
2017-07-20T02:55:14.441Z,36.7
2017-07-20T02:56:15.823Z,36.7
2017-07-20T02:57:12.202Z,36.7
2017-07-20T02:58:12.421Z,36.7
2017-07-20T02:59:12.947Z,36.7
2017-07-20T03:00:15.990Z,36.7
2017-07-20T03:01:14.670Z,36.7
2017-07-20T03:02:15.150Z,36.7
2017-07-20T03:03:16.031Z,36.7
2017-07-20T03:04:12.801Z,36.7
2017-07-20T03:05:13.280Z,36.7
2017-07-20T03:06:14.731Z,36.7
2017-07-20T03:07:13.171Z,36.7
2017-07-20T03:08:16.132Z,36.7
2017-07-20T03:09:16.117Z,36.7
2017-07-20T03:10:14.957Z,36.7
2017-07-20T03:11:16.747Z,36.7
2017-07-20T03:12:14.835Z,36.7
2017-07-20T03:13:16.324Z,36.7
2017-07-20T03:14:16.613Z,36.7
2017-07-20T03:15:16.685Z,36.7
2017-07-20T03:16:13.248Z,36.7
2017-07-20T03:17:13.489Z,36.7
2017-07-20T03:18:13.457Z,36.7
2017-07-20T03:19:15.234Z,36.7
2017-07-20T03:20:13.450Z,36.7
2017-07-20T03:21:16.707Z,36.6
2017-07-20T03:22:13.941Z,36.7
2017-07-20T03:23:17.519Z,36.7
2017-07-20T03:24:14.201Z,36.7
2017-07-20T03:25:13.873Z,36.7
2017-07-20T03:26:14.470Z,36.7
2017-07-20T03:27:17.624Z,36.7
2017-07-20T03:28:17.744Z,36.7
2017-07-20T03:29:14.397Z,36.7
2017-07-20T03:30:17.478Z,36.7
2017-07-20T03:31:17.299Z,36.7
2017-07-20T03:32:15.993Z,36.7
2017-07-20T03:33:15.990Z,36.7
2017-07-20T03:34:14.334Z,36.7
2017-07-20T03:35:14.482Z,36.7
2017-07-20T03:36:14.465Z,36.7
2017-07-20T03:37:14.295Z,36.7
2017-07-20T03:38:14.403Z,36.7
2017-07-20T03:39:14.909Z,36.7
2017-07-20T03:40:14.637Z,36.7
2017-07-20T03:41:17.165Z,36.7
2017-07-20T03:42:15.056Z,36.7
2017-07-20T03:43:18.542Z,36.7
2017-07-20T03:44:15.294Z,36.7
2017-07-20T03:45:18.574Z,36.7
2017-07-20T03:46:15.270Z,36.7
2017-07-20T03:47:18.610Z,36.7
2017-07-20T03:48:15.036Z,36.7
2017-07-20T03:49:15.008Z,36.7
2017-07-20T03:50:14.863Z,36.7
2017-07-20T03:51:14.959Z,36.7
2017-07-20T03:52:16.909Z,36.7
2017-07-20T03:53:15.281Z,36.7
2017-07-20T03:54:15.299Z,36.7
2017-07-20T03:55:17.029Z,36.7
2017-07-20T03:56:15.178Z,36.7
2017-07-20T03:57:17.387Z,36.7
2017-07-20T03:58:18.870Z,36.8
2017-07-20T03:59:15.909Z,36.9
2017-07-20T04:00:15.483Z,37.1
2017-07-20T04:01:15.684Z,37.3
2017-07-20T04:02:15.766Z,37.5
2017-07-20T04:03:18.924Z,37.8
2017-07-20T04:04:17.784Z,37.9
2017-07-20T04:05:17.962Z,38
2017-07-20T04:06:17.700Z,38.1
2017-07-20T04:07:19.310Z,38.1
2017-07-20T04:08:16.065Z,38.2
2017-07-20T04:09:18.030Z,38.3
2017-07-20T04:10:19.216Z,38.3
2017-07-20T04:11:16.434Z,38.3
2017-07-20T04:12:16.209Z,38.4
2017-07-20T04:13:19.435Z,38.4
2017-07-20T04:14:18.252Z,38.4
2017-07-20T04:15:16.405Z,38.4
2017-07-20T04:16:18.404Z,38.4
2017-07-20T04:17:16.844Z,38.5
2017-07-20T04:18:16.678Z,38.5
2017-07-20T04:19:18.617Z,38.5
2017-07-20T04:20:16.766Z,38.5
2017-07-20T04:21:18.764Z,38.5
2017-07-20T04:22:16.892Z,38.5
2017-07-20T04:23:17.285Z,38.5
2017-07-20T04:24:20.098Z,38.5
2017-07-20T04:25:16.816Z,38.5
2017-07-20T04:26:17.103Z,38.5
2017-07-20T04:27:17.003Z,38.5
2017-07-20T04:28:20.358Z,38.5
2017-07-20T04:29:17.648Z,38.5
2017-07-20T04:30:19.263Z,38.5
2017-07-20T04:31:17.231Z,38.5
2017-07-20T04:32:19.146Z,38.7
2017-07-20T04:33:19.247Z,38.9
2017-07-20T04:34:17.584Z,39.1
2017-07-20T04:35:18.552Z,39.3
2017-07-20T04:36:20.897Z,39.8
2017-07-20T04:37:17.847Z,40.3
2017-07-20T04:38:17.898Z,40.7
2017-07-20T04:39:21.059Z,41.2
2017-07-20T04:40:17.762Z,41.6
2017-07-20T04:41:18.869Z,42
2017-07-20T04:42:18.085Z,42.4
2017-07-20T04:43:21.249Z,42.7
2017-07-20T04:44:19.826Z,43
2017-07-20T04:45:18.241Z,43.3
2017-07-20T04:46:18.222Z,43.5
2017-07-20T04:47:19.055Z,43.8
2017-07-20T04:48:18.185Z,44.3
2017-07-20T04:49:55.657Z,44.7
2017-07-20T04:50:21.747Z,44.8
2017-07-20T04:51:18.348Z,44.9
2017-07-20T04:52:18.395Z,44.9
2017-07-20T04:53:22.054Z,44.8
2017-07-20T04:54:18.476Z,44.7
2017-07-20T04:55:18.526Z,44.6
2017-07-20T04:56:18.769Z,44.4
2017-07-20T04:57:18.875Z,44.3
2017-07-20T04:58:20.895Z,44.1
2017-07-20T04:59:19.049Z,43.9
2017-07-20T05:00:21.517Z,43.8
2017-07-20T05:01:20.974Z,43.8
2017-07-20T05:02:19.073Z,43.8
2017-07-20T05:03:19.115Z,43.8
2017-07-20T05:04:22.292Z,43.8
2017-07-20T05:05:19.301Z,43.9
2017-07-20T05:06:20.938Z,43.9
2017-07-20T05:07:22.402Z,43.8
2017-07-20T05:08:22.657Z,43.8
2017-07-20T05:09:22.531Z,43.8
2017-07-20T05:10:19.394Z,43.6
2017-07-20T05:11:23.060Z,43.6
2017-07-20T05:12:19.387Z,43.4
2017-07-20T05:13:21.539Z,43.3
2017-07-20T05:14:20.124Z,43.3
2017-07-20T05:15:21.573Z,43.2
2017-07-20T05:16:21.405Z,43.2
2017-07-20T05:17:19.862Z,43.2
2017-07-20T05:18:22.284Z,43.3
2017-07-20T05:19:23.272Z,43.4
2017-07-20T05:20:21.705Z,43.5
2017-07-20T05:21:19.834Z,43.6
2017-07-20T05:22:23.447Z,43.6
2017-07-20T05:23:20.476Z,43.7
2017-07-20T05:24:23.373Z,43.7
2017-07-20T05:25:20.089Z,43.7
2017-07-20T05:26:20.153Z,43.8
2017-07-20T05:27:20.173Z,43.9
2017-07-20T05:28:20.271Z,43.9
2017-07-20T05:29:23.860Z,43.8
2017-07-20T05:30:20.334Z,43.9
2017-07-20T05:31:20.570Z,43.9
2017-07-20T05:32:20.587Z,43.9
2017-07-20T05:33:20.480Z,43.9
2017-07-20T05:34:20.529Z,43.9
2017-07-20T05:35:22.696Z,43.9
2017-07-20T05:36:23.943Z,44
2017-07-20T05:37:20.630Z,44
2017-07-20T05:38:20.675Z,44
2017-07-20T05:39:20.773Z,43.9
2017-07-20T05:40:24.314Z,43.8
2017-07-20T05:41:21.779Z,43.7
2017-07-20T05:42:21.028Z,43.7
2017-07-20T05:43:21.420Z,43.6
2017-07-20T05:44:24.300Z,43.7
2017-07-20T05:45:21.004Z,43.7
2017-07-20T05:46:21.094Z,43.8
2017-07-20T05:47:23.403Z,43.9
2017-07-20T05:48:24.507Z,44
2017-07-20T05:49:23.124Z,44.1
2017-07-20T05:50:23.482Z,44.1
2017-07-20T05:51:21.395Z,44
2017-07-20T05:52:21.493Z,44
2017-07-20T05:53:25.394Z,44.1
2017-07-20T05:54:24.967Z,44.1
2017-07-20T05:55:21.932Z,44.1
2017-07-20T05:56:23.735Z,44.1
2017-07-20T05:57:25.478Z,44.2
2017-07-20T05:58:22.045Z,44.1
2017-07-20T05:59:24.441Z,44.1
2017-07-20T06:00:24.004Z,44.1
2017-07-20T06:01:24.174Z,44
2017-07-20T06:02:22.168Z,43.9
2017-07-20T06:03:22.166Z,44
2017-07-20T06:04:24.064Z,44
2017-07-20T06:05:26.648Z,44
2017-07-20T06:06:25.646Z,44.1
2017-07-20T06:07:25.168Z,44
2017-07-20T06:08:25.760Z,44
2017-07-20T06:09:24.407Z,43.9
2017-07-20T06:10:26.035Z,43.9
2017-07-20T06:11:23.097Z,43.8
2017-07-20T06:12:28.417Z,43.8
2017-07-20T06:13:24.923Z,43.8
2017-07-20T06:14:25.136Z,43.8
2017-07-20T06:15:28.462Z,44
2017-07-20T06:16:25.278Z,44.1
2017-07-20T06:17:28.684Z,44.1
2017-07-20T06:18:27.619Z,44
2017-07-20T06:19:26.099Z,43.9
2017-07-20T06:20:25.537Z,43.7
2017-07-20T06:21:27.516Z,43.7
2017-07-20T06:22:25.637Z,43.8
2017-07-20T06:23:27.700Z,43.9
2017-07-20T06:24:25.960Z,44
2017-07-20T06:25:25.800Z,44
2017-07-20T06:26:26.028Z,44.1
2017-07-20T06:27:25.845Z,44.1
2017-07-20T06:28:26.311Z,44.1
2017-07-20T06:29:29.451Z,44.1
2017-07-20T06:30:29.619Z,44
2017-07-20T06:31:29.886Z,43.9
2017-07-20T06:32:29.843Z,44
2017-07-20T06:33:26.320Z,44.1
2017-07-20T06:34:30.044Z,44.1
2017-07-20T06:35:26.579Z,44
2017-07-20T06:36:28.576Z,44.1
2017-07-20T06:37:28.890Z,44.1
2017-07-20T06:38:26.982Z,44.1
2017-07-20T06:39:29.314Z,44.1
2017-07-20T06:40:26.729Z,44.1
2017-07-20T06:41:29.984Z,44.1
2017-07-20T06:42:26.831Z,44
2017-07-20T06:43:26.955Z,43.9
2017-07-20T06:44:31.465Z,43.9
2017-07-20T06:45:30.433Z,43.8
2017-07-20T06:46:28.886Z,43.9
2017-07-20T06:47:30.684Z,43.9
2017-07-20T06:48:27.923Z,43.9
2017-07-20T06:49:30.492Z,43.8
2017-07-20T06:50:27.373Z,43.7
2017-07-20T06:51:27.416Z,43.6
2017-07-20T06:52:27.453Z,43.5
2017-07-20T06:53:31.405Z,43.5
2017-07-20T06:54:28.294Z,43.4
2017-07-20T06:55:27.526Z,43.3
2017-07-20T06:56:27.807Z,43.3
2017-07-20T06:57:30.975Z,43.2
2017-07-20T06:58:27.792Z,43.2
2017-07-20T06:59:28.335Z,43.1
2017-07-20T07:00:28.088Z,43
2017-07-20T07:01:27.800Z,42.9
2017-07-20T07:02:31.031Z,42.9
2017-07-20T07:03:28.003Z,42.8
2017-07-20T07:04:28.045Z,42.7
2017-07-20T07:05:30.275Z,42.7
2017-07-20T07:06:28.564Z,42.7
2017-07-20T07:07:30.090Z,42.6
2017-07-20T07:08:31.868Z,42.6
2017-07-20T07:09:28.396Z,42.6
2017-07-20T07:10:28.623Z,42.5
2017-07-20T07:11:31.680Z,42.6
2017-07-20T07:12:30.388Z,42.6
2017-07-20T07:13:32.152Z,42.8
2017-07-20T07:14:30.762Z,42.8
2017-07-20T07:15:28.424Z,42.9
2017-07-20T07:16:28.481Z,42.9
2017-07-20T07:17:33.041Z,42.9
2017-07-20T07:18:28.597Z,42.9
2017-07-20T07:19:28.619Z,42.9
2017-07-20T07:20:31.653Z,42.9
2017-07-20T07:21:32.213Z,43
2017-07-20T07:22:29.253Z,43
2017-07-20T07:23:28.774Z,43
2017-07-20T07:24:31.362Z,43
2017-07-20T07:25:31.634Z,43
2017-07-20T07:26:29.022Z,43.1
2017-07-20T07:27:32.760Z,43.1
2017-07-20T07:28:29.102Z,43.2
2017-07-20T07:29:29.340Z,43.2
2017-07-20T07:30:31.665Z,43.3
2017-07-20T07:31:31.749Z,43.3
2017-07-20T07:32:29.742Z,43.4
2017-07-20T07:33:33.538Z,43.4
2017-07-20T07:34:31.631Z,43.4
2017-07-20T07:35:32.916Z,43.4
2017-07-20T07:36:30.165Z,43.4
2017-07-20T07:37:33.436Z,43.4
2017-07-20T07:38:33.562Z,43.4
2017-07-20T07:39:34.241Z,43.3
2017-07-20T07:40:33.944Z,43.4
2017-07-20T07:41:33.683Z,43.4
2017-07-20T07:42:29.993Z,43.5
2017-07-20T07:43:32.543Z,43.5
2017-07-20T07:44:30.345Z,43.5
2017-07-20T07:45:31.038Z,43.5
2017-07-20T07:46:32.397Z,43.5
2017-07-20T07:47:33.206Z,43.5
2017-07-20T07:48:32.666Z,43.5
2017-07-20T07:49:32.699Z,43.6
2017-07-20T07:50:33.897Z,43.6
2017-07-20T07:51:30.631Z,43.6
2017-07-20T07:52:30.465Z,43.6
2017-07-20T07:53:31.129Z,43.6
2017-07-20T07:54:33.015Z,43.6
2017-07-20T07:55:34.401Z,43.6
2017-07-20T07:56:32.817Z,43.6
2017-07-20T07:57:32.777Z,43.6
2017-07-20T07:58:35.400Z,43.6
2017-07-20T07:59:34.332Z,43.6
2017-07-20T08:00:34.053Z,43.7
2017-07-20T08:01:32.147Z,43.7
2017-07-20T08:02:35.247Z,43.7
2017-07-20T08:03:35.913Z,43.6
2017-07-20T08:04:30.888Z,43.6
2017-07-20T08:05:34.470Z,43.7
2017-07-20T08:06:31.171Z,43.8
2017-07-20T08:07:31.137Z,43.8
2017-07-20T08:08:33.625Z,43.8
2017-07-20T08:09:32.639Z,43.8
2017-07-20T08:10:31.545Z,43.7
2017-07-20T08:11:35.130Z,43.8
2017-07-20T08:12:31.741Z,43.8
2017-07-20T08:13:34.445Z,43.8
2017-07-20T08:14:35.253Z,43.9
2017-07-20T08:15:33.674Z,43.9
2017-07-20T08:16:31.708Z,43.9
2017-07-20T08:17:32.351Z,44
2017-07-20T08:18:32.493Z,44
2017-07-20T08:19:35.425Z,44
2017-07-20T08:20:35.580Z,44
2017-07-20T08:21:35.455Z,44
2017-07-20T08:22:34.582Z,43.9
2017-07-20T08:23:35.960Z,43.9
2017-07-20T08:24:33.805Z,43.9
2017-07-20T08:25:36.016Z,43.9
2017-07-20T08:26:40.397Z,43.9
2017-07-20T08:27:33.523Z,43.8
2017-07-20T08:28:36.392Z,43.8
2017-07-20T08:29:35.531Z,43.8
2017-07-20T08:30:33.604Z,43.7
2017-07-20T08:31:34.148Z,43.7
2017-07-20T08:32:36.530Z,43.7
2017-07-20T08:33:37.197Z,43.7
2017-07-20T08:34:35.821Z,43.6
2017-07-20T08:35:38.148Z,43.6
2017-07-20T08:36:34.895Z,43.6
2017-07-20T08:37:37.629Z,43.5
2017-07-20T08:38:35.425Z,43.5
2017-07-20T08:39:40.653Z,43.5
2017-07-20T08:40:38.200Z,43.4
2017-07-20T08:41:35.295Z,43.4
2017-07-20T08:42:35.744Z,43.3
2017-07-20T08:43:35.081Z,43.3
2017-07-20T08:44:36.837Z,43.3
2017-07-20T08:45:36.114Z,43.2
2017-07-20T08:46:34.956Z,43.1
2017-07-20T08:47:37.256Z,43
2017-07-20T08:48:38.304Z,43
2017-07-20T08:49:36.961Z,43
2017-07-20T08:50:36.280Z,43
2017-07-20T08:51:36.095Z,43
2017-07-20T08:52:38.376Z,42.8
2017-07-20T08:53:37.559Z,42.7
2017-07-20T08:54:35.939Z,42.6
2017-07-20T08:55:35.019Z,42.5
2017-07-20T08:56:35.028Z,42.4
2017-07-20T08:57:38.821Z,42.3
2017-07-20T08:58:35.113Z,42.2
2017-07-20T08:59:35.305Z,42.2
2017-07-20T09:00:35.499Z,42
2017-07-20T09:01:35.850Z,41.9
2017-07-20T09:02:37.307Z,41.8
2017-07-20T09:03:39.062Z,41.8
2017-07-20T09:04:39.065Z,41.8
2017-07-20T09:05:38.036Z,41.8
2017-07-20T09:06:38.405Z,41.8
2017-07-20T09:07:36.492Z,41.8
2017-07-20T09:08:39.436Z,41.7
2017-07-20T09:09:39.374Z,41.6
2017-07-20T09:10:38.472Z,41.5
2017-07-20T09:11:37.698Z,41.5
2017-07-20T09:12:38.880Z,41.5
2017-07-20T09:13:39.636Z,41.6
2017-07-20T09:14:36.875Z,41.7
2017-07-20T09:15:39.825Z,41.8
2017-07-20T09:16:38.091Z,41.8
2017-07-20T09:17:38.529Z,41.9
2017-07-20T09:18:38.196Z,42.1
2017-07-20T09:19:36.377Z,42.2
2017-07-20T09:20:40.331Z,42.3
2017-07-20T09:21:37.164Z,42.3
2017-07-20T09:22:37.027Z,42.3
2017-07-20T09:23:38.714Z,42.3
2017-07-20T09:24:36.575Z,42.3
2017-07-20T09:25:36.842Z,42.3
2017-07-20T09:26:36.685Z,42.3
2017-07-20T09:27:37.478Z,42.3
2017-07-20T09:28:37.332Z,42.2
2017-07-20T09:29:40.358Z,42.2
2017-07-20T09:30:37.480Z,42.1
2017-07-20T09:31:36.869Z,42.1
2017-07-20T09:32:41.060Z,42.1
2017-07-20T09:33:41.780Z,42.2
2017-07-20T09:34:40.332Z,42.2
2017-07-20T09:35:44.122Z,42.1
2017-07-20T09:36:40.495Z,42
2017-07-20T09:37:40.765Z,41.9
2017-07-20T09:38:40.797Z,41.9
2017-07-20T09:39:40.902Z,41.8
2017-07-20T09:40:40.978Z,41.7
2017-07-20T09:41:44.202Z,41.8
2017-07-20T09:42:44.556Z,41.8
2017-07-20T09:43:43.145Z,41.9
2017-07-20T09:44:41.335Z,41.9
2017-07-20T09:45:45.677Z,41.8
2017-07-20T09:46:42.068Z,41.9
2017-07-20T09:47:44.857Z,41.9
2017-07-20T09:48:41.495Z,41.9
2017-07-20T09:49:41.676Z,41.8
2017-07-20T09:50:44.655Z,41.8
2017-07-20T09:51:42.269Z,41.8
2017-07-20T09:52:43.447Z,41.8
2017-07-20T09:53:44.755Z,41.7
2017-07-20T09:54:43.013Z,41.8
2017-07-20T09:55:43.523Z,41.8
2017-07-20T09:56:41.875Z,41.9
2017-07-20T09:57:46.451Z,42
2017-07-20T09:58:43.646Z,42
2017-07-20T09:59:43.697Z,41.9
2017-07-20T10:00:44.472Z,42
2017-07-20T10:01:46.073Z,42
2017-07-20T10:02:42.120Z,42
2017-07-20T10:03:42.799Z,41.9
2017-07-20T10:04:44.278Z,41.9
2017-07-20T10:05:45.521Z,41.9
2017-07-20T10:06:44.136Z,41.8
2017-07-20T10:07:45.294Z,41.7
2017-07-20T10:08:47.838Z,41.7
2017-07-20T10:09:42.918Z,41.8
2017-07-20T10:10:49.080Z,41.7
2017-07-20T10:11:48.887Z,41.8
2017-07-20T10:12:46.013Z,41.8
2017-07-20T10:13:43.379Z,41.8
2017-07-20T10:14:44.703Z,41.8
2017-07-20T10:15:42.786Z,41.8
2017-07-20T10:16:47.577Z,41.7
2017-07-20T10:17:44.877Z,41.7
2017-07-20T10:18:45.186Z,41.7
2017-07-20T10:19:45.133Z,41.6
2017-07-20T10:20:45.071Z,41.6
2017-07-20T10:21:43.192Z,41.5
2017-07-20T10:22:45.417Z,41.5
2017-07-20T10:23:43.982Z,41.6
2017-07-20T10:24:45.439Z,41.6
2017-07-20T10:25:53.406Z,41.5
2017-07-20T10:26:45.339Z,41.5
2017-07-20T10:27:47.987Z,41.5
2017-07-20T10:28:48.287Z,41.5
2017-07-20T10:29:47.102Z,41.5
2017-07-20T10:30:44.237Z,41.4
2017-07-20T10:31:44.796Z,41.4
2017-07-20T10:32:46.434Z,41.3
2017-07-20T10:33:45.677Z,41.3
2017-07-20T10:34:43.944Z,41.2
2017-07-20T10:35:44.658Z,41.2
2017-07-20T10:36:43.846Z,41.1
2017-07-20T10:37:44.593Z,41.1
2017-07-20T10:38:48.346Z,41
2017-07-20T10:39:47.982Z,41
2017-07-20T10:40:44.729Z,41
2017-07-20T10:41:52.976Z,41
2017-07-20T10:42:45.935Z,41
2017-07-20T10:43:48.659Z,41
2017-07-20T10:44:46.427Z,40.9
2017-07-20T10:45:49.683Z,40.8
2017-07-20T10:46:45.295Z,40.7
2017-07-20T10:47:45.049Z,40.6
2017-07-20T10:48:48.811Z,40.6
2017-07-20T10:49:48.871Z,40.5
2017-07-20T10:50:45.762Z,40.5
2017-07-20T10:51:49.188Z,40.5
2017-07-20T10:52:46.883Z,40.4
2017-07-20T10:53:44.567Z,40.4
2017-07-20T10:54:47.851Z,40.3
2017-07-20T10:55:44.796Z,40.2
2017-07-20T10:56:47.129Z,40.1
2017-07-20T10:57:48.643Z,40.1
2017-07-20T10:58:45.994Z,40
2017-07-20T10:59:48.379Z,40
2017-07-20T11:00:48.100Z,40
2017-07-20T11:01:45.439Z,40
2017-07-20T11:02:48.008Z,39.9
2017-07-20T11:03:47.468Z,39.9
2017-07-20T11:04:49.256Z,39.9
2017-07-20T11:05:48.638Z,39.8
2017-07-20T11:06:49.578Z,39.8
2017-07-20T11:07:48.466Z,39.7
2017-07-20T11:08:47.029Z,39.6
2017-07-20T11:09:45.926Z,39.6
2017-07-20T11:10:49.439Z,39.5
2017-07-20T11:11:47.691Z,39.5
2017-07-20T11:12:47.803Z,39.4
2017-07-20T11:13:46.233Z,39.3
2017-07-20T11:14:48.899Z,39.2
2017-07-20T11:15:46.035Z,39.1
2017-07-20T11:16:45.604Z,39
2017-07-20T11:17:47.740Z,39
2017-07-20T11:18:46.127Z,38.9
2017-07-20T11:19:45.644Z,38.8
2017-07-20T11:20:46.434Z,38.6
2017-07-20T11:21:46.089Z,38.5
2017-07-20T11:22:48.147Z,38.4
2017-07-20T11:23:47.758Z,38.3
2017-07-20T11:24:45.721Z,38.1
2017-07-20T11:25:45.791Z,38.2
2017-07-20T11:26:48.336Z,38.2
2017-07-20T11:27:49.462Z,38.2
2017-07-20T11:28:47.809Z,38.2
2017-07-20T11:29:45.988Z,38.1
2017-07-20T11:30:46.059Z,38.1
2017-07-20T11:31:46.785Z,38
2017-07-20T11:32:50.346Z,38
2017-07-20T11:33:46.172Z,37.9
2017-07-20T11:34:49.774Z,37.8
2017-07-20T11:35:47.095Z,37.7
2017-07-20T11:36:49.858Z,37.6
2017-07-20T11:37:46.954Z,37.6
2017-07-20T11:38:49.170Z,37.6
2017-07-20T11:39:48.985Z,37.5
2017-07-20T11:40:48.660Z,37.5
2017-07-20T11:41:46.748Z,37.6
2017-07-20T11:42:47.561Z,37.7
2017-07-20T11:43:47.570Z,37.7
2017-07-20T11:44:50.666Z,37.7
2017-07-20T11:45:47.644Z,37.8
2017-07-20T11:46:49.070Z,37.9
2017-07-20T11:47:50.383Z,37.9
2017-07-20T11:48:49.144Z,37.8
2017-07-20T11:49:47.321Z,37.7
2017-07-20T11:50:48.723Z,37.9
2017-07-20T11:51:47.417Z,38.1
2017-07-20T11:52:51.960Z,38.2
2017-07-20T11:53:49.372Z,38.4
2017-07-20T11:54:47.563Z,38.6
2017-07-20T11:55:49.322Z,38.7
2017-07-20T11:56:49.047Z,38.8
2017-07-20T11:57:47.713Z,38.9
2017-07-20T11:58:51.633Z,39
2017-07-20T11:59:47.582Z,39
2017-07-20T12:00:53.262Z,39.1
2017-07-20T12:01:51.103Z,39.2
2017-07-20T12:02:52.218Z,39.2
2017-07-20T12:03:48.778Z,39.3
2017-07-20T12:04:47.948Z,39.3
2017-07-20T12:05:48.734Z,39.3
2017-07-20T12:06:47.959Z,39.3
2017-07-20T12:07:48.863Z,39.4
2017-07-20T12:08:48.227Z,39.4
2017-07-20T12:09:48.640Z,39.4
2017-07-20T12:10:50.661Z,39.4
2017-07-20T12:11:49.943Z,39.4
2017-07-20T12:12:50.358Z,39.3
2017-07-20T12:13:48.179Z,39.3
2017-07-20T12:14:49.706Z,39.3
2017-07-20T12:15:51.711Z,39.3
2017-07-20T12:16:52.624Z,39.4
2017-07-20T12:17:51.744Z,39.4
2017-07-20T12:18:48.534Z,39.5
2017-07-20T12:19:51.080Z,39.6
2017-07-20T12:20:52.428Z,39.6
2017-07-20T12:21:52.670Z,39.7
2017-07-20T12:22:53.336Z,39.7
2017-07-20T12:23:53.391Z,39.8
2017-07-20T12:24:52.180Z,39.8
2017-07-20T12:25:49.291Z,39.8
2017-07-20T12:26:50.013Z,39.9
2017-07-20T12:27:49.829Z,39.9
2017-07-20T12:28:51.034Z,39.9
2017-07-20T12:29:50.517Z,39.8
2017-07-20T12:30:49.416Z,39.8
2017-07-20T12:31:55.060Z,39.8
2017-07-20T12:32:55.358Z,39.8
2017-07-20T12:33:54.630Z,39.7
2017-07-20T12:34:53.454Z,39.6
2017-07-20T12:35:55.078Z,39.6
2017-07-20T12:36:50.924Z,39.6
2017-07-20T12:37:50.301Z,39.6
2017-07-20T12:38:51.794Z,39.7
2017-07-20T12:39:50.517Z,39.8
2017-07-20T12:40:55.114Z,39.8
2017-07-20T12:41:51.749Z,39.9
2017-07-20T12:42:52.820Z,40
2017-07-20T12:43:52.155Z,40.1
2017-07-20T12:44:50.268Z,40.2
2017-07-20T12:45:50.159Z,40.2
2017-07-20T12:46:53.086Z,40.2
2017-07-20T12:47:51.204Z,40.2
2017-07-20T12:48:52.277Z,40.2
2017-07-20T12:49:50.270Z,40.1
2017-07-20T12:50:52.198Z,40.1
2017-07-20T12:51:51.054Z,40
2017-07-20T12:52:50.540Z,39.9
2017-07-20T12:53:53.700Z,39.7
2017-07-20T12:54:50.618Z,39.5
2017-07-20T12:55:53.329Z,39.2
2017-07-20T12:56:50.563Z,38.9
2017-07-20T12:57:50.483Z,38.7
2017-07-20T12:58:51.295Z,38.5
2017-07-20T12:59:54.016Z,38.4
2017-07-20T13:00:53.955Z,38.4
2017-07-20T13:01:54.916Z,38.3
2017-07-20T13:02:52.286Z,38.3
2017-07-20T13:03:51.017Z,38.3
2017-07-20T13:04:52.722Z,38.3
2017-07-20T13:05:54.046Z,38.3
2017-07-20T13:06:54.783Z,38.3
2017-07-20T13:07:53.659Z,38.2
2017-07-20T13:08:52.063Z,38.2
2017-07-20T13:09:52.693Z,38.2
2017-07-20T13:10:52.621Z,38.2
2017-07-20T13:11:53.195Z,38.2
2017-07-20T13:12:54.488Z,38.1
2017-07-20T13:13:51.393Z,38.1
2017-07-20T13:14:51.498Z,38.1
2017-07-20T13:15:54.984Z,38.1
2017-07-20T13:16:51.510Z,38.1
2017-07-20T13:17:54.295Z,38.1
2017-07-20T13:18:55.825Z,38.1
2017-07-20T13:19:53.518Z,38.1
2017-07-20T13:20:53.547Z,38.1
2017-07-20T13:21:53.362Z,38.1
2017-07-20T13:22:54.397Z,38.1